Time;durP1;ratioP1;P1;durP2;ratioP2;P2;SDS_P1;SDS_P2;PMS_P1;PMS_P2;Temp;Humidity;BMP_temperature;BMP_pressure;BME280_temperature;BME280_humidity;BME280_pressure;Samples;Min_cycle;Max_cycle;Signal;HPM_P1;HPM_P2
2021/04/21 00:02:22;;;;;;;27.67;9.25;;;22.10;60.40;;;;;;5089927;28;20034;-75
2021/04/21 00:04:52;;;;;;;29.40;8.90;;;22.10;60.50;;;;;;5091247;28;20020;-73
2021/04/21 00:07:21;;;;;;;25.40;8.13;;;22.10;60.60;;;;;;5088280;28;20118;-74
2021/04/21 00:09:49;;;;;;;25.30;7.43;;;22.00;60.60;;;;;;5089125;28;20071;-75
2021/04/21 00:12:17;;;;;;;23.95;9.55;;;22.00;60.60;;;;;;5091039;28;20048;-75
2021/04/21 00:14:46;;;;;;;27.00;8.15;;;22.00;60.70;;;;;;5089693;28;20103;-74
2021/04/21 00:17:13;;;;;;;20.63;8.00;;;22.00;60.70;;;;;;5090793;28;20107;-75
2021/04/21 00:19:43;;;;;;;26.58;8.73;;;22.00;60.80;;;;;;5089516;28;20028;-72
2021/04/21 00:22:14;;;;;;;25.55;8.75;;;22.00;60.80;;;;;;5090635;28;20027;-75
2021/04/21 00:24:41;;;;;;;29.30;8.25;;;22.00;60.80;;;;;;5089890;28;20020;-75
2021/04/21 00:27:09;;;;;;;23.42;8.05;;;22.00;60.90;;;;;;5090228;28;20020;-75
2021/04/21 00:29:44;;;;;;;23.83;9.07;;;22.00;60.90;;;;;;5090671;28;20427;-76
2021/04/21 00:32:11;;;;;;;;;;;22.00;60.90;;;;;;5085881;28;20043;-72
2021/04/21 00:34:39;;;;;;;27.98;8.35;;;22.00;61.00;;;;;;5088998;28;19927;-75
2021/04/21 00:37:07;;;;;;;29.10;9.30;;;21.90;60.90;;;;;;5089180;28;20021;-75
2021/04/21 00:39:35;;;;;;;25.02;9.80;;;22.00;61.00;;;;;;5090414;28;20020;-73
2021/04/21 00:42:26;;;;;;;28.85;8.80;;;21.90;61.00;;;;;;5089078;28;20032;-76
2021/04/21 00:44:58;;;;;;;32.88;10.18;;;21.90;61.00;;;;;;5089238;28;20024;-76
2021/04/21 00:47:54;;;;;;;28.25;11.32;;;21.90;61.40;;;;;;5085013;28;20030;-76
2021/04/21 00:50:39;;;;;;;30.98;10.82;;;21.90;61.20;;;;;;5068239;28;20104;-76
2021/04/21 00:53:15;;;;;;;29.80;11.38;;;21.90;61.20;;;;;;5089492;28;20097;-76
2021/04/21 00:56:05;;;;;;;29.00;10.85;;;21.90;61.30;;;;;;5090285;28;20016;-75
2021/04/21 00:58:41;;;;;;;44.20;14.10;;;21.80;61.30;;;;;;5077851;28;20024;-73
2021/04/21 01:01:11;;;;;;;34.97;13.93;;;21.80;61.40;;;;;;5084562;28;20032;-73
2021/04/21 01:03:39;;;;;;;27.25;14.13;;;21.80;62.10;;;;;;5088802;28;20037;-71
2021/04/21 01:06:15;;;;;;;27.85;13.27;;;21.80;61.40;;;;;;5089126;28;20467;-75
2021/04/21 01:08:55;;;;;;;25.75;11.95;;;21.80;61.50;;;;;;5090091;28;20483;-74
2021/04/21 01:11:41;;;;;;;30.83;12.23;;;21.80;61.50;;;;;;5086223;28;20024;-74
2021/04/21 01:14:26;;;;;;;31.48;12.95;;;21.80;61.60;;;;;;5088028;28;20016;-75
2021/04/21 01:17:01;;;;;;;25.15;10.68;;;21.80;61.60;;;;;;5089768;28;21174;-76
2021/04/21 01:19:55;;;;;;;32.03;12.30;;;21.70;61.60;;;;;;5085797;28;20008;-74
2021/04/21 01:22:29;;;;;;;29.33;10.00;;;21.70;61.60;;;;;;5078289;28;20391;-74
2021/04/21 01:25:26;;;;;;;27.50;9.35;;;21.70;61.70;;;;;;5083781;28;20036;-75
2021/04/21 01:28:13;;;;;;;26.63;9.43;;;21.70;61.80;;;;;;5083606;28;20135;-74
2021/04/21 01:30:46;;;;;;;33.70;10.65;;;21.70;61.80;;;;;;5076513;28;20075;-72
2021/04/21 01:33:17;;;;;;;18.42;7.35;;;21.70;61.80;;;;;;5086592;28;20370;-73
2021/04/21 01:35:48;;;;;;;23.70;8.05;;;21.70;61.80;;;;;;5081457;28;20032;-73
2021/04/21 01:38:19;;;;;;;22.80;7.82;;;21.70;61.90;;;;;;5087627;28;20022;-73
2021/04/21 01:40:48;;;;;;;18.95;6.65;;;21.70;61.90;;;;;;5088993;28;20024;-75
2021/04/21 01:43:21;;;;;;;23.58;9.32;;;21.70;61.80;;;;;;5088916;28;20500;-76
2021/04/21 01:45:56;;;;;;;22.05;7.05;;;21.60;61.80;;;;;;5088254;28;20036;-75
2021/04/21 01:48:25;;;;;;;20.60;8.13;;;21.60;61.80;;;;;;5072852;28;20034;-77
2021/04/21 01:50:54;;;;;;;24.08;8.52;;;21.60;61.80;;;;;;5088376;28;20431;-76
2021/04/21 01:53:23;;;;;;;26.42;8.88;;;21.60;61.80;;;;;;5085513;28;20108;-76
2021/04/21 01:56:10;;;;;;;23.42;9.45;;;21.60;61.70;;;;;;5089077;28;20036;-76
2021/04/21 01:58:52;;;;;;;31.02;8.93;;;21.60;61.60;;;;;;5076858;28;20042;-73
2021/04/21 02:01:52;;;;;;;18.90;7.68;;;21.60;61.60;;;;;;5092535;28;20537;-75
2021/04/21 02:04:43;;;;;;;22.45;8.15;;;21.60;61.60;;;;;;5092579;28;20024;-76
2021/04/21 02:07:41;;;;;;;18.05;8.25;;;21.50;61.50;;;;;;5093883;28;20032;-74
2021/04/21 02:10:28;;;;;;;23.92;8.63;;;21.50;61.50;;;;;;5092095;28;20027;-76
2021/04/21 02:13:45;;;;;;;22.52;7.88;;;21.50;61.50;;;;;;5092402;28;20016;-76
2021/04/21 02:16:14;;;;;;;;;;;21.50;61.50;;;;;;5084764;28;20016;-74
2021/04/21 02:18:54;;;;;;;24.92;6.68;;;21.50;61.50;;;;;;5093230;28;20201;-76
2021/04/21 02:21:36;;;;;;;23.23;8.43;;;21.50;61.50;;;;;;5091558;28;20475;-75
2021/04/21 02:24:42;;;;;;;21.42;8.20;;;21.40;61.50;;;;;;5090196;28;20052;-76
2021/04/21 02:27:25;;;;;;;24.27;8.07;;;21.40;61.50;;;;;;5085377;28;20063;-75
2021/04/21 02:30:13;;;;;;;26.90;9.93;;;21.40;61.50;;;;;;5088664;28;20107;-75
2021/04/21 02:33:05;;;;;;;20.45;8.02;;;21.40;61.40;;;;;;5090072;28;20471;-74
2021/04/21 02:36:20;;;;;;;24.98;8.77;;;21.40;61.40;;;;;;5083473;28;20388;-75
2021/04/21 02:39:16;;;;;;;22.92;8.23;;;21.40;61.30;;;;;;5090242;28;20024;-77
2021/04/21 02:41:51;;;;;;;22.63;6.93;;;21.40;61.30;;;;;;5087757;28;20392;-75
2021/04/21 02:44:41;;;;;;;17.35;8.52;;;21.30;61.30;;;;;;5092759;28;20048;-75
2021/04/21 02:47:53;;;;;;;19.67;7.45;;;21.30;61.30;;;;;;5091804;28;20036;-77
2021/04/21 02:50:33;;;;;;;25.65;8.77;;;21.30;61.30;;;;;;5039380;28;20036;-77
2021/04/21 02:53:42;;;;;;;18.58;6.50;;;21.30;61.30;;;;;;5086263;28;20410;-77
2021/04/21 02:56:29;;;;;;;16.08;6.53;;;21.30;61.40;;;;;;5091323;28;20020;-78
2021/04/21 02:59:04;;;;;;;20.00;7.57;;;21.20;61.30;;;;;;5091403;28;20028;-77
2021/04/21 03:01:55;;;;;;;18.95;7.35;;;21.20;61.30;;;;;;5092181;28;20076;-76
2021/04/21 03:04:46;;;;;;;25.05;8.13;;;21.20;61.30;;;;;;5086377;28;20028;-76
2021/04/21 03:07:23;;;;;;;20.77;8.55;;;21.20;61.30;;;;;;5091517;28;20142;-74
2021/04/21 03:10:10;;;;;;;19.40;7.57;;;21.20;61.30;;;;;;5091980;28;20020;-75
2021/04/21 03:12:40;;;;;;;21.30;7.45;;;21.20;61.40;;;;;;5086396;28;20028;-73
2021/04/21 03:15:15;;;;;;;24.35;8.38;;;21.20;61.50;;;;;;5092022;28;20058;-76
2021/04/21 03:17:42;;;;;;;22.23;8.25;;;21.20;61.50;;;;;;5085849;28;20020;-72
2021/04/21 03:20:18;;;;;;;24.45;7.97;;;21.20;61.50;;;;;;5091124;28;20032;-76
2021/04/21 03:22:50;;;;;;;29.77;8.10;;;21.20;61.50;;;;;;5087526;28;20016;-69
2021/04/21 03:25:20;;;;;;;20.60;8.02;;;21.20;61.50;;;;;;5084151;28;20377;-78
2021/04/21 03:27:53;;;;;;;21.25;8.27;;;21.10;61.50;;;;;;5091660;28;20640;-76
2021/04/21 03:30:23;;;;;;;18.88;6.72;;;21.10;61.60;;;;;;5090173;28;20069;-75
2021/04/21 03:33:18;;;;;;;24.85;7.75;;;21.10;61.50;;;;;;5073377;28;20065;-76
2021/04/21 03:35:49;;;;;;;24.08;7.82;;;21.10;61.50;;;;;;5047118;28;20047;-73
2021/04/21 03:38:16;;;;;;;19.58;7.28;;;21.10;61.40;;;;;;5090001;28;20099;-75
2021/04/21 03:40:43;;;;;;;21.60;6.97;;;21.10;61.50;;;;;;5091440;28;20020;-75
2021/04/21 03:43:11;;;;;;;21.58;9.98;;;21.10;61.50;;;;;;5087160;28;20071;-74
2021/04/21 03:45:46;;;;;;;20.10;7.40;;;21.10;61.60;;;;;;5091303;28;20111;-72
2021/04/21 03:48:15;;;;;;;20.02;7.22;;;21.10;61.60;;;;;;5090977;28;20060;-75
2021/04/21 03:50:43;;;;;;;20.95;7.15;;;21.00;61.50;;;;;;5090323;28;20375;-73
2021/04/21 03:53:12;;;;;;;23.20;9.73;;;21.10;61.60;;;;;;5091311;28;20031;-74
2021/04/21 03:55:39;;;;;;;22.58;6.93;;;21.00;61.60;;;;;;5090009;28;20410;-74
2021/04/21 03:58:12;;;;;;;22.90;7.28;;;21.00;61.60;;;;;;5083051;28;20058;-73
2021/04/21 04:00:40;;;;;;;19.48;6.65;;;21.00;61.70;;;;;;5088662;28;20024;-71
2021/04/21 04:03:14;;;;;;;20.83;7.38;;;21.00;61.70;;;;;;5090649;28;20020;-72
2021/04/21 04:05:48;;;;;;;17.45;7.05;;;21.00;61.80;;;;;;5089433;28;20031;-71
2021/04/21 04:08:20;;;;;;;16.90;7.65;;;21.00;61.90;;;;;;5084030;28;20023;-71
2021/04/21 04:10:50;;;;;;;27.98;17.45;;;21.00;62.00;;;;;;5091025;28;20017;-77
2021/04/21 04:13:17;;;;;;;38.50;21.27;;;21.00;62.20;;;;;;5088897;28;20539;-71
2021/04/21 04:15:45;;;;;;;25.23;15.50;;;21.00;62.40;;;;;;5084660;28;20025;-75
2021/04/21 04:18:17;;;;;;;31.88;12.98;;;21.00;62.60;;;;;;5090625;28;20406;-73
2021/04/21 04:20:46;;;;;;;23.65;10.07;;;20.90;62.60;;;;;;5083607;28;20027;-72
2021/04/21 04:23:15;;;;;;;28.67;13.68;;;20.90;62.80;;;;;;5089615;28;20051;-71
2021/04/21 04:25:46;;;;;;;42.72;25.38;;;20.90;62.90;;;;;;5089112;28;20035;-71
2021/04/21 04:28:13;;;;;;;40.05;24.55;;;20.90;62.90;;;;;;5090535;28;20026;-70
2021/04/21 04:30:42;;;;;;;30.98;15.32;;;20.90;63.10;;;;;;5085601;28;20055;-71
2021/04/21 04:33:11;;;;;;;24.75;12.65;;;20.90;63.10;;;;;;5089220;28;20024;-73
2021/04/21 04:35:38;;;;;;;25.88;10.90;;;20.90;63.20;;;;;;5089737;28;20039;-73
2021/04/21 04:38:05;;;;;;;24.77;11.13;;;20.90;63.30;;;;;;5080798;28;20009;-70
2021/04/21 04:40:35;;;;;;;27.90;14.65;;;21.00;63.40;;;;;;5089627;28;20028;-71
2021/04/21 04:43:03;;;;;;;37.17;18.33;;;20.90;63.40;;;;;;5086898;28;20383;-71
2021/04/21 04:45:32;;;;;;;32.40;19.77;;;20.90;63.60;;;;;;5090388;28;20043;-71
2021/04/21 04:48:04;;;;;;;42.30;21.02;;;20.90;63.70;;;;;;5088994;28;20069;-70
2021/04/21 04:50:32;;;;;;;44.17;23.58;;;20.90;63.80;;;;;;5090148;28;20066;-70
2021/04/21 04:52:59;;;;;;;40.88;24.67;;;20.90;63.80;;;;;;5089190;28;20144;-71
2021/04/21 04:55:27;;;;;;;43.53;25.92;;;20.90;63.90;;;;;;5087488;28;20046;-69
2021/04/21 04:57:55;;;;;;;43.72;27.02;;;20.90;64.00;;;;;;5087519;28;20579;-70
2021/04/21 05:00:26;;;;;;;40.85;27.65;;;20.90;64.00;;;;;;5087844;28;20095;-70
2021/04/21 05:03:12;;;;;;;40.17;28.52;;;20.90;64.10;;;;;;5089403;28;20020;-69
2021/04/21 05:05:39;;;;;;;47.75;28.35;;;20.80;64.00;;;;;;5084608;28;20437;-70
2021/04/21 05:08:17;;;;;;;43.92;29.65;;;20.80;64.00;;;;;;5089611;28;20016;-69
2021/04/21 05:11:08;;;;;;;43.25;28.70;;;20.80;64.10;;;;;;5089927;28;20023;-69
2021/04/21 05:13:53;;;;;;;43.42;26.27;;;20.80;64.00;;;;;;5086306;28;20020;-70
2021/04/21 05:16:28;;;;;;;44.60;25.63;;;20.80;64.00;;;;;;5089231;28;20394;-70
2021/04/21 05:19:25;;;;;;;37.28;24.02;;;20.80;64.00;;;;;;5083301;28;20522;-70
2021/04/21 05:22:28;;;;;;;31.60;23.52;;;20.80;64.00;;;;;;5086223;28;20016;-69
2021/04/21 05:25:13;;;;;;;36.75;21.90;;;20.80;64.10;;;;;;5089501;28;20058;-69
2021/04/21 05:28:01;;;;;;;35.70;18.20;;;20.80;64.10;;;;;;5087617;28;20024;-70
2021/04/21 05:31:04;;;;;;;31.85;15.40;;;20.80;64.10;;;;;;5085178;28;20048;-69
2021/04/21 05:33:49;;;;;;;28.80;14.00;;;20.80;64.10;;;;;;5079245;28;20036;-69
2021/04/21 05:36:52;;;;;;;31.67;13.50;;;20.70;64.10;;;;;;5081455;28;20435;-69
2021/04/21 05:39:57;;;;;;;28.80;13.07;;;20.70;64.20;;;;;;5076836;28;20048;-68
2021/04/21 05:42:44;;;;;;;26.52;11.23;;;20.70;64.30;;;;;;5054018;28;20114;-69
2021/04/21 05:45:41;;;;;;;29.98;12.32;;;20.70;64.50;;;;;;5092124;28;20052;-68
2021/04/21 05:48:38;;;;;;;22.40;11.65;;;20.70;64.50;;;;;;5092592;28;20043;-68
2021/04/21 05:51:23;;;;;;;22.83;11.55;;;20.70;64.70;;;;;;5092404;28;20543;-68
2021/04/21 05:54:08;;;;;;;27.38;11.75;;;20.70;64.80;;;;;;5091399;28;20012;-68
2021/04/21 05:56:56;;;;;;;25.00;12.60;;;20.70;65.00;;;;;;5092615;28;20020;-68
2021/04/21 05:59:48;;;;;;;18.88;11.05;;;20.70;65.10;;;;;;5089304;28;20024;-69
2021/04/21 06:02:18;;;;;;;21.05;10.63;;;20.70;65.30;;;;;;5092632;28;20352;-70
2021/04/21 06:04:45;;;;;;;26.25;11.63;;;20.70;65.40;;;;;;5075136;28;20119;-68
2021/04/21 06:07:15;;;;;;;34.55;12.70;;;20.70;65.50;;;;;;5093339;28;20036;-68
2021/04/21 06:09:42;;;;;;;27.52;13.50;;;20.70;65.50;;;;;;5092788;28;20009;-68
2021/04/21 06:12:16;;;;;;;21.15;11.10;;;20.70;65.60;;;;;;5093164;28;20085;-68
2021/04/21 06:14:45;;;;;;;23.67;11.32;;;20.80;65.80;;;;;;5092218;28;20024;-68
2021/04/21 06:17:12;;;;;;;24.77;11.48;;;20.70;65.70;;;;;;5085684;28;20058;-69
2021/04/21 06:19:42;;;;;;;22.92;10.60;;;20.80;65.80;;;;;;5090787;28;20031;-68
2021/04/21 06:22:10;;;;;;;26.05;11.90;;;20.70;65.80;;;;;;5091191;28;20480;-68
2021/04/21 06:24:36;;;;;;;24.40;10.32;;;20.70;65.80;;;;;;5093111;28;20056;-68
2021/04/21 06:27:11;;;;;;;29.45;11.13;;;20.80;66.00;;;;;;5091818;28;20032;-69
2021/04/21 06:29:41;;;;;;;24.02;9.20;;;20.70;66.00;;;;;;5088613;28;20024;-68
2021/04/21 06:32:15;;;;;;;19.95;9.80;;;20.70;66.10;;;;;;5092024;28;20081;-69
2021/04/21 06:34:42;;;;;;;30.40;9.80;;;20.70;66.20;;;;;;5093172;28;20024;-68
2021/04/21 06:37:10;;;;;;;19.65;9.88;;;20.70;66.20;;;;;;5092572;28;20026;-68
2021/04/21 06:39:37;;;;;;;24.30;10.10;;;20.80;66.30;;;;;;5091026;28;20016;-68
2021/04/21 06:42:05;;;;;;;22.67;9.10;;;20.70;66.30;;;;;;5090896;28;20471;-68
2021/04/21 06:44:32;;;;;;;21.65;9.82;;;20.80;66.50;;;;;;5091561;28;20028;-67
2021/04/21 06:46:59;;;;;;;23.35;9.48;;;20.80;66.60;;;;;;5091449;28;20028;-68
2021/04/21 06:49:25;;;;;;;27.52;12.82;;;20.80;66.70;;;;;;5091438;28;20020;-69
2021/04/21 06:51:52;;;;;;;24.77;11.80;;;20.80;66.70;;;;;;5092500;28;20036;-68
2021/04/21 06:54:22;;;;;;;32.80;11.13;;;20.80;66.80;;;;;;5091742;28;20008;-68
2021/04/21 06:56:49;;;;;;;24.30;13.05;;;20.80;66.80;;;;;;5092303;28;20036;-68
2021/04/21 06:59:20;;;;;;;21.40;11.80;;;20.80;66.90;;;;;;5092271;28;20111;-68
2021/04/21 07:01:50;;;;;;;24.67;11.80;;;20.80;67.00;;;;;;5091270;28;20016;-69
2021/04/21 07:04:19;;;;;;;29.25;10.27;;;20.80;67.00;;;;;;5092331;28;20020;-69
2021/04/21 07:06:46;;;;;;;25.27;10.35;;;20.90;67.10;;;;;;5089191;28;20671;-69
2021/04/21 07:09:14;;;;;;;25.08;10.82;;;20.90;67.00;;;;;;5091611;28;20535;-68
2021/04/21 07:11:42;;;;;;;26.52;10.05;;;20.90;67.00;;;;;;5091624;28;20019;-68
2021/04/21 07:14:18;;;;;;;21.58;10.32;;;20.90;67.10;;;;;;5089055;28;20038;-68
2021/04/21 07:16:44;;;;;;;24.38;10.15;;;21.00;67.10;;;;;;5074584;28;20110;-67
2021/04/21 07:19:12;;;;;;;28.17;11.27;;;21.00;67.10;;;;;;5090995;28;20046;-67
2021/04/21 07:21:43;;;;;;;24.98;10.82;;;21.00;67.10;;;;;;5091888;28;20069;-68
2021/04/21 07:24:12;;;;;;;25.48;11.10;;;21.00;67.10;;;;;;5090717;28;20022;-67
2021/04/21 07:26:42;;;;;;;29.27;11.85;;;21.10;67.00;;;;;;5091809;28;20115;-67
2021/04/21 07:29:16;;;;;;;27.65;13.23;;;21.10;67.00;;;;;;5089631;28;20099;-68
2021/04/21 07:31:43;;;;;;;27.30;11.55;;;21.20;67.00;;;;;;5081140;28;20072;-67
2021/04/21 07:34:14;;;;;;;27.30;12.23;;;21.20;66.90;;;;;;5090703;28;20020;-67
2021/04/21 07:36:47;;;;;;;24.45;11.68;;;21.20;66.90;;;;;;5090630;28;20031;-67
2021/04/21 07:39:14;;;;;;;28.27;11.88;;;21.20;66.80;;;;;;5091517;28;20502;-68
2021/04/21 07:41:47;;;;;;;24.85;11.13;;;21.30;66.90;;;;;;5090996;28;20047;-67
2021/04/21 07:44:38;;;;;;;27.88;10.18;;;21.30;66.80;;;;;;5091459;28;20103;-68
2021/04/21 07:47:07;;;;;;;27.40;11.55;;;21.40;66.70;;;;;;5091486;28;20845;-68
2021/04/21 07:49:38;;;;;;;25.23;11.52;;;21.40;66.60;;;;;;5090310;28;20329;-68
2021/04/21 07:52:08;;;;;;;28.20;12.98;;;21.40;66.60;;;;;;5091717;28;20016;-69
2021/04/21 07:54:37;;;;;;;20.33;10.50;;;21.40;66.50;;;;;;5090783;28;20031;-69
2021/04/21 07:57:18;;;;;;;24.02;10.05;;;21.50;66.60;;;;;;5085914;28;20459;-67
2021/04/21 07:59:47;;;;;;;17.40;9.15;;;21.50;66.40;;;;;;5072681;28;20391;-68
2021/04/21 08:02:21;;;;;;;20.83;10.75;;;21.60;66.40;;;;;;5090125;28;20039;-69
2021/04/21 08:04:50;;;;;;;22.50;9.23;;;21.60;66.30;;;;;;5091332;28;20028;-68
2021/04/21 08:07:39;;;;;;;34.10;12.48;;;21.70;66.30;;;;;;5089794;28;20032;-69
2021/04/21 08:10:17;;;;;;;26.92;10.57;;;21.70;66.10;;;;;;5090576;28;20024;-70
2021/04/21 08:12:43;;;;;;;21.25;10.38;;;21.70;66.10;;;;;;5090968;28;20020;-70
2021/04/21 08:15:12;;;;;;;29.30;10.48;;;21.80;66.00;;;;;;5089708;28;20431;-70
2021/04/21 08:18:22;;;;;;;21.42;10.70;;;21.80;65.90;;;;;;5090908;28;20020;-69
2021/04/21 08:20:51;;;;;;;19.17;9.68;;;21.90;65.90;;;;;;5083478;28;20563;-69
2021/04/21 08:23:19;;;;;;;21.58;9.43;;;21.90;65.70;;;;;;5090306;28;20420;-69
2021/04/21 08:25:47;;;;;;;28.27;11.30;;;22.00;65.70;;;;;;5089032;28;20360;-69
2021/04/21 08:28:13;;;;;;;24.85;12.15;;;22.00;65.60;;;;;;5089257;28;20028;-69
2021/04/21 08:30:52;;;;;;;24.38;10.57;;;22.00;65.60;;;;;;5090563;28;20044;-69
2021/04/21 08:33:19;;;;;;;26.30;11.85;;;22.10;65.60;;;;;;5088917;28;20023;-68
2021/04/21 08:35:45;;;;;;;30.02;14.20;;;22.10;65.60;;;;;;5090589;28;20043;-69
2021/04/21 08:38:12;;;;;;;26.30;12.63;;;22.10;65.60;;;;;;5089754;28;20112;-69
2021/04/21 08:40:40;;;;;;;29.02;11.45;;;22.20;65.50;;;;;;5090265;28;20030;-69
2021/04/21 08:43:08;;;;;;;27.25;12.32;;;22.20;65.40;;;;;;5084683;28;20020;-70
2021/04/21 08:45:36;;;;;;;38.20;12.95;;;22.30;65.50;;;;;;5089109;28;20051;-69
2021/04/21 08:48:05;;;;;;;23.70;11.80;;;22.30;65.30;;;;;;5089206;28;20495;-69
2021/04/21 08:50:36;;;;;;;25.27;11.40;;;22.40;65.30;;;;;;5088535;28;20030;-70
2021/04/21 08:53:11;;;;;;;30.60;11.20;;;22.40;65.20;;;;;;5090044;28;20038;-70
2021/04/21 08:55:39;;;;;;;28.73;11.80;;;22.50;65.00;;;;;;5089906;28;20031;-69
2021/04/21 08:58:08;;;;;;;28.95;12.77;;;22.60;64.90;;;;;;5089677;28;20020;-69
2021/04/21 09:00:35;;;;;;;26.45;12.15;;;22.60;64.70;;;;;;5090228;28;20356;-69
2021/04/21 09:03:02;;;;;;;26.58;11.13;;;22.60;64.50;;;;;;5088720;28;20494;-70
2021/04/21 09:05:28;;;;;;;30.65;10.52;;;22.70;64.40;;;;;;5083775;28;20520;-70
2021/04/21 09:07:55;;;;;;;20.05;9.68;;;22.70;64.20;;;;;;5088673;28;20016;-69
2021/04/21 09:10:22;;;;;;;27.75;11.40;;;22.80;64.10;;;;;;5087515;28;20022;-69
2021/04/21 09:12:49;;;;;;;22.70;11.07;;;22.90;64.00;;;;;;5086259;28;20008;-70
2021/04/21 09:15:17;;;;;;;25.60;11.32;;;22.90;64.00;;;;;;5089347;28;20068;-70
2021/04/21 09:17:52;;;;;;;22.95;9.82;;;23.00;64.00;;;;;;5090106;28;20013;-69
2021/04/21 09:20:24;;;;;;;22.23;10.55;;;23.00;63.80;;;;;;5088742;28;20024;-69
2021/04/21 09:23:00;;;;;;;26.55;11.38;;;23.10;63.40;;;;;;5086154;28;20430;-69
2021/04/21 09:25:32;;;;;;;21.77;10.00;;;23.20;63.30;;;;;;5085045;28;20068;-69
2021/04/21 09:27:58;;;;;;;29.65;10.43;;;23.20;63.20;;;;;;5083036;28;20404;-70
2021/04/21 09:30:26;;;;;;;27.77;11.88;;;23.30;63.10;;;;;;5089466;28;20048;-70
2021/04/21 09:32:55;;;;;;;24.92;10.38;;;23.40;62.90;;;;;;5089150;28;20120;-68
2021/04/21 09:35:37;;;;;;;28.38;10.48;;;23.40;63.00;;;;;;5080170;28;20031;-69
2021/04/21 09:38:06;;;;;;;30.88;10.30;;;23.50;62.80;;;;;;5088038;28;20016;-69
2021/04/21 09:40:37;;;;;;;33.92;11.77;;;23.50;62.60;;;;;;5089759;28;20028;-70
2021/04/21 09:43:05;;;;;;;22.63;9.25;;;23.60;62.60;;;;;;5089054;28;20028;-70
2021/04/21 09:45:39;;;;;;;24.90;9.45;;;23.60;62.60;;;;;;5089172;28;20097;-69
2021/04/21 09:48:22;;;;;;;22.80;10.35;;;23.70;62.40;;;;;;5089601;28;20016;-70
2021/04/21 09:51:04;;;;;;;21.90;9.77;;;23.80;62.20;;;;;;5082179;28;20067;-70
2021/04/21 09:53:43;;;;;;;20.60;9.30;;;23.80;62.10;;;;;;5085882;28;20020;-70
2021/04/21 09:56:20;;;;;;;23.58;11.02;;;23.90;61.90;;;;;;5086018;28;20120;-70
2021/04/21 09:58:54;;;;;;;23.60;10.85;;;24.00;61.70;;;;;;5087709;28;20012;-69
2021/04/21 10:01:26;;;;;;;41.07;13.20;;;24.10;61.60;;;;;;5089723;28;20035;-70
2021/04/21 10:04:27;;;;;;;26.20;10.35;;;24.10;61.20;;;;;;5082541;28;20026;-70
2021/04/21 10:07:01;;;;;;;27.95;9.75;;;24.20;61.20;;;;;;5087357;28;20098;-71
2021/04/21 10:09:35;;;;;;;27.45;11.15;;;24.20;60.90;;;;;;5088439;28;20463;-70
2021/04/21 10:12:21;;;;;;;25.15;10.52;;;24.30;60.60;;;;;;5088192;28;20478;-70
2021/04/21 10:15:13;;;;;;;25.38;9.93;;;24.40;60.40;;;;;;5087402;28;20061;-69
2021/04/21 10:17:42;;;;;;;24.02;10.38;;;24.40;60.20;;;;;;5087843;28;20536;-70
2021/04/21 10:20:11;;;;;;;29.55;11.85;;;24.50;60.00;;;;;;5083292;28;20047;-70
2021/04/21 10:22:39;;;;;;;24.75;9.55;;;24.60;59.90;;;;;;5093015;28;20103;-69
2021/04/21 10:25:07;;;;;;;25.30;11.00;;;24.60;59.80;;;;;;5091988;28;20023;-70
2021/04/21 10:27:34;;;;;;;22.58;10.10;;;24.70;59.60;;;;;;5091918;28;20047;-70
2021/04/21 10:30:09;;;;;;;27.80;10.48;;;24.80;59.30;;;;;;5091716;28;20052;-69
2021/04/21 10:32:36;;;;;;;27.98;10.18;;;24.90;59.20;;;;;;5090088;28;20031;-70
2021/04/21 10:35:04;;;;;;;18.88;8.60;;;24.90;59.10;;;;;;5081335;28;20024;-70
2021/04/21 10:37:36;;;;;;;24.92;9.35;;;25.00;58.90;;;;;;5085644;28;20016;-70
2021/04/21 10:40:04;;;;;;;29.38;10.52;;;25.00;58.60;;;;;;5090628;28;20030;-70
2021/04/21 10:43:06;;;;;;;29.75;11.20;;;25.10;58.60;;;;;;5091522;28;20020;-69
2021/04/21 10:45:48;;;;;;;26.58;10.00;;;25.20;58.60;;;;;;5090003;28;20028;-70
2021/04/21 10:48:41;;;;;;;31.95;10.48;;;25.20;58.20;;;;;;5091494;28;20066;-70
2021/04/21 10:51:33;;;;;;;24.63;10.07;;;25.30;58.20;;;;;;5091663;28;20020;-69
2021/04/21 10:54:31;;;;;;;21.80;9.18;;;25.40;57.90;;;;;;5092244;28;20077;-70
2021/04/21 10:57:22;;;;;;;26.55;10.02;;;25.40;57.80;;;;;;5090102;28;20039;-69
2021/04/21 11:00:17;;;;;;;28.75;9.32;;;25.50;57.60;;;;;;5090245;28;20551;-69
2021/04/21 11:02:48;;;;;;;15.65;8.10;;;25.60;57.40;;;;;;5090381;28;20032;-68
2021/04/21 11:05:20;;;;;;;15.88;7.90;;;25.60;57.30;;;;;;5091611;28;20024;-70
2021/04/21 11:08:02;;;;;;;20.38;9.65;;;25.70;57.10;;;;;;5089945;28;20028;-70
2021/04/21 11:10:54;;;;;;;22.13;8.25;;;25.70;56.80;;;;;;5085644;28;20527;-68
2021/04/21 11:13:33;;;;;;;22.73;7.97;;;25.80;56.80;;;;;;5090692;28;20024;-71
2021/04/21 11:15:59;;;;;;;21.08;7.75;;;25.80;56.40;;;;;;5092071;28;20474;-70
2021/04/21 11:18:29;;;;;;;14.88;6.85;;;25.90;56.30;;;;;;5091951;28;20016;-70
2021/04/21 11:20:58;;;;;;;18.15;7.78;;;25.90;56.30;;;;;;5091276;28;20020;-69
2021/04/21 11:23:59;;;;;;;17.88;7.18;;;25.90;56.00;;;;;;5091436;28;20020;-69
2021/04/21 11:26:30;;;;;;;21.40;6.82;;;26.00;55.90;;;;;;5087845;28;20032;-69
2021/04/21 11:29:07;;;;;;;27.05;6.88;;;26.00;55.70;;;;;;5091897;28;20069;-69
2021/04/21 11:31:43;;;;;;;19.17;7.60;;;26.00;55.40;;;;;;5086586;28;20048;-69
2021/04/21 11:34:21;;;;;;;20.77;7.18;;;26.10;55.30;;;;;;5090086;28;20467;-70
2021/04/21 11:36:57;;;;;;;19.70;7.18;;;26.10;55.20;;;;;;5087345;28;20024;-69
2021/04/21 11:39:49;;;;;;;16.52;5.93;;;26.10;55.20;;;;;;5085973;28;20048;-70
2021/04/21 11:42:36;;;;;;;19.27;7.88;;;26.20;55.80;;;;;;5091034;28;20031;-70
2021/04/21 11:45:23;;;;;;;12.85;6.45;;;26.20;54.90;;;;;;5089294;28;20055;-71
2021/04/21 11:48:06;;;;;;;17.17;6.60;;;26.30;54.70;;;;;;5090322;28;20022;-69
2021/04/21 11:50:43;;;;;;;14.00;6.18;;;26.30;54.80;;;;;;5091060;28;20016;-70
2021/04/21 11:53:12;;;;;;;19.45;6.70;;;26.40;54.70;;;;;;5091128;28;20016;-70
2021/04/21 11:55:57;;;;;;;13.55;5.60;;;26.50;54.40;;;;;;5090655;28;20737;-70
2021/04/21 11:58:34;;;;;;;14.63;6.40;;;26.50;54.30;;;;;;5087936;28;20023;-69
2021/04/21 12:01:09;;;;;;;10.73;5.75;;;26.60;54.00;;;;;;5089854;28;20025;-69
2021/04/21 12:03:38;;;;;;;16.63;4.85;;;26.60;53.60;;;;;;5081643;28;20024;-68
2021/04/21 12:06:10;;;;;;;18.80;6.18;;;26.70;53.30;;;;;;5088987;28;20028;-68
2021/04/21 12:08:45;;;;;;;12.90;5.35;;;26.80;53.00;;;;;;5090213;28;20387;-69
2021/04/21 12:11:11;;;;;;;12.02;5.50;;;26.80;52.80;;;;;;5090871;28;20025;-70
2021/04/21 12:13:44;;;;;;;16.05;5.40;;;26.80;52.90;;;;;;5090276;28;20095;-70
2021/04/21 12:16:22;;;;;;;14.00;5.93;;;26.80;52.70;;;;;;5090831;28;20459;-70
2021/04/21 12:18:49;;;;;;;12.85;6.22;;;26.80;52.60;;;;;;5090322;28;20024;-70
2021/04/21 12:21:16;;;;;;;17.25;6.03;;;26.80;52.60;;;;;;5090698;28;20027;-71
2021/04/21 12:24:00;;;;;;;19.00;8.32;;;26.70;52.50;;;;;;5090960;28;20023;-69
2021/04/21 12:26:35;;;;;;;14.95;5.15;;;26.60;52.40;;;;;;5084307;28;20032;-71
2021/04/21 12:29:09;;;;;;;15.73;7.03;;;26.60;52.50;;;;;;5090579;28;20024;-71
2021/04/21 12:31:36;;;;;;;17.35;6.82;;;26.60;52.50;;;;;;5089607;28;20040;-71
2021/04/21 12:34:06;;;;;;;18.10;6.72;;;26.50;52.60;;;;;;5090325;28;20070;-70
2021/04/21 12:36:36;;;;;;;15.45;6.80;;;26.50;52.60;;;;;;5090414;28;20031;-70
2021/04/21 12:39:08;;;;;;;15.88;6.18;;;26.40;52.60;;;;;;5089400;28;20020;-71
2021/04/21 12:41:37;;;;;;;13.65;5.97;;;26.30;52.60;;;;;;5084037;28;20028;-69
2021/04/21 12:44:18;;;;;;;17.83;5.90;;;26.30;52.70;;;;;;5088424;28;20047;-71
2021/04/21 12:46:49;;;;;;;16.25;6.05;;;26.20;52.60;;;;;;5090328;28;20040;-71
2021/04/21 12:49:27;;;;;;;19.95;7.68;;;26.10;52.60;;;;;;5087300;28;20024;-71
2021/04/21 12:51:53;;;;;;;22.17;7.13;;;26.10;52.70;;;;;;5088602;28;20461;-71
2021/04/21 12:54:37;;;;;;;20.88;8.10;;;25.90;52.70;;;;;;5090266;28;20471;-70
2021/04/21 12:57:08;;;;;;;22.33;6.47;;;25.90;52.70;;;;;;5089644;28;20023;-70
2021/04/21 12:59:42;;;;;;;20.05;6.50;;;25.80;52.80;;;;;;5090596;28;20028;-70
2021/04/21 13:02:12;;;;;;;17.02;7.15;;;25.70;52.80;;;;;;5089514;28;20012;-70
2021/04/21 13:04:41;;;;;;;20.58;7.00;;;25.70;52.90;;;;;;5086186;28;20023;-70
2021/04/21 13:07:23;;;;;;;16.40;6.15;;;25.70;52.90;;;;;;5090153;28;20115;-70
2021/04/21 13:09:50;;;;;;;15.45;6.93;;;25.60;53.00;;;;;;5089523;28;20958;-69
2021/04/21 13:12:22;;;;;;;23.55;6.72;;;25.60;53.00;;;;;;5089860;28;20012;-68
2021/04/21 13:14:51;;;;;;;27.45;7.47;;;25.60;53.00;;;;;;5083484;28;20038;-70
2021/04/21 13:17:17;;;;;;;17.80;6.75;;;25.70;53.10;;;;;;5089124;28;20012;-69